createdAt,value
2023-02-22T00:01:51.349Z,4.03
2023-02-22T00:04:21.461Z,6.43
2023-02-22T00:06:50.790Z,9.10
2023-02-22T00:09:21.521Z,7.28
2023-02-22T00:11:50.269Z,7.03
2023-02-22T00:14:20.783Z,7.90
2023-02-22T00:16:48.887Z,3.70
2023-02-22T00:19:16.979Z,3.35
2023-02-22T00:21:47.442Z,6.30
2023-02-22T00:24:23.914Z,5.90
2023-02-22T00:26:55.594Z,5.55
2023-02-22T00:29:24.882Z,4.10
2023-02-22T00:31:53.494Z,4.97
2023-02-22T00:34:23.485Z,3.80
2023-02-22T00:36:52.732Z,3.63
2023-02-22T00:39:20.900Z,5.22
2023-02-22T00:41:49.770Z,3.00
2023-02-22T00:44:18.175Z,4.22
2023-02-22T00:46:46.830Z,4.10
2023-02-22T00:49:16.666Z,3.72
2023-02-22T00:51:44.717Z,2.72
2023-02-22T00:54:14.408Z,5.00
2023-02-22T00:56:42.787Z,6.10
2023-02-22T00:59:10.868Z,5.03
2023-02-22T01:01:38.928Z,3.30
2023-02-22T01:04:07.141Z,4.72
2023-02-22T01:06:35.313Z,4.00
2023-02-22T01:09:04.569Z,4.30
2023-02-22T01:11:34.110Z,5.70
2023-02-22T01:14:02.589Z,4.30
2023-02-22T01:16:30.679Z,3.55
2023-02-22T01:21:29.477Z,2.20
2023-02-22T01:23:57.554Z,3.45
2023-02-22T01:26:25.694Z,3.25
2023-02-22T01:28:55.150Z,3.65
2023-02-22T01:31:24.069Z,4.90
2023-02-22T01:33:52.519Z,3.03
2023-02-22T01:36:20.683Z,4.60
2023-02-22T01:38:48.766Z,4.50
2023-02-22T01:41:18.485Z,4.18
2023-02-22T01:43:46.740Z,2.35
2023-02-22T01:46:25.248Z,3.42
2023-02-22T01:48:57.807Z,3.22
2023-02-22T01:51:30.727Z,4.10
2023-02-22T01:54:02.280Z,4.45
2023-02-22T01:56:33.945Z,3.53
2023-02-22T01:59:06.176Z,4.00
2023-02-22T02:01:37.377Z,3.63
2023-02-22T02:04:11.116Z,2.40
2023-02-22T02:06:42.397Z,3.63
2023-02-22T02:09:15.626Z,3.28
2023-02-22T02:11:44.432Z,5.20
2023-02-22T02:14:14.025Z,6.30
2023-02-22T02:16:47.114Z,3.90
2023-02-22T02:19:25.278Z,3.67
2023-02-22T02:22:14.227Z,5.47
2023-02-22T02:25:10.846Z,4.60
2023-02-22T02:28:05.603Z,5.68
2023-02-22T02:30:50.698Z,6.25
2023-02-22T02:33:30.546Z,3.90
2023-02-22T02:36:05.624Z,3.35
2023-02-22T02:38:40.114Z,3.95
2023-02-22T02:41:15.178Z,5.47
2023-02-22T02:43:53.387Z,4.80
2023-02-22T02:46:26.403Z,4.38
2023-02-22T02:49:00.353Z,3.45
2023-02-22T02:51:33.438Z,5.72
2023-02-22T02:54:04.325Z,6.43
2023-02-22T02:56:32.503Z,3.22
2023-02-22T02:59:01.676Z,3.90
2023-02-22T03:01:53.870Z,3.80
2023-02-22T03:04:39.518Z,4.25
2023-02-22T03:07:21.779Z,4.18
2023-02-22T03:10:02.082Z,3.63
2023-02-22T03:12:39.964Z,4.40
2023-02-22T03:15:21.962Z,4.80
2023-02-22T03:17:56.209Z,4.25
2023-02-22T03:20:32.641Z,3.78
2023-02-22T03:23:08.192Z,5.00
2023-02-22T03:25:41.294Z,2.92
2023-02-22T03:28:13.172Z,3.47
2023-02-22T03:30:46.879Z,4.45
2023-02-22T03:33:20.485Z,4.05
2023-02-22T03:36:06.489Z,5.78
2023-02-22T03:38:38.298Z,3.17
2023-02-22T03:41:09.814Z,3.50
2023-02-22T03:43:42.681Z,5.45
2023-02-22T03:46:16.628Z,3.53
2023-02-22T03:48:54.256Z,6.28
2023-02-22T03:51:25.913Z,3.20
2023-02-22T03:54:00.262Z,3.85
2023-02-22T03:56:47.288Z,5.72
2023-02-22T03:59:16.057Z,4.15
2023-02-22T04:01:46.269Z,3.50
2023-02-22T04:04:14.533Z,5.45
2023-02-22T04:06:44.190Z,6.35
2023-02-22T04:09:13.749Z,7.85
2023-02-22T04:11:41.951Z,4.32
2023-02-22T04:14:10.143Z,7.97
2023-02-22T04:16:38.325Z,4.90
2023-02-22T04:19:09.798Z,4.30
2023-02-22T04:21:39.921Z,4.03
2023-02-22T04:24:16.065Z,6.22
2023-02-22T04:26:44.207Z,5.40
2023-02-22T04:31:42.405Z,3.03
2023-02-22T04:34:11.489Z,4.88
2023-02-22T04:36:44.622Z,6.00
2023-02-22T04:39:13.155Z,4.85
2023-02-22T04:41:42.592Z,4.13
2023-02-22T04:44:10.706Z,3.13
2023-02-22T04:46:38.803Z,4.03
2023-02-22T04:49:06.958Z,5.15
2023-02-22T04:51:38.510Z,5.72
2023-02-22T04:54:09.273Z,4.60
2023-02-22T04:56:39.536Z,4.60
2023-02-22T04:59:08.969Z,4.90
2023-02-22T05:01:39.097Z,4.25
2023-02-22T05:04:09.090Z,3.75
2023-02-22T05:06:37.296Z,3.97
2023-02-22T05:09:05.512Z,4.75
2023-02-22T05:11:33.895Z,4.72
2023-02-22T05:14:01.998Z,6.30
2023-02-22T05:16:31.480Z,6.50
2023-02-22T05:18:59.600Z,4.93
2023-02-22T05:21:27.580Z,3.10
2023-02-22T05:23:55.613Z,5.53
2023-02-22T05:26:23.544Z,3.00
2023-02-22T05:28:51.625Z,4.60
2023-02-22T05:31:20.120Z,5.68
2023-02-22T05:33:49.715Z,3.85
2023-02-22T05:36:17.964Z,5.90
2023-02-22T05:38:45.949Z,4.30
2023-02-22T05:41:14.619Z,4.25
2023-02-22T05:43:42.974Z,5.25
2023-02-22T05:46:11.280Z,2.65
2023-02-22T05:48:39.436Z,3.58
2023-02-22T05:51:09.677Z,3.63
2023-02-22T05:53:37.786Z,6.30
2023-02-22T05:56:06.540Z,3.63
2023-02-22T05:58:34.735Z,4.88
2023-02-22T06:01:03.501Z,4.63
2023-02-22T06:03:31.648Z,3.08
2023-02-22T06:05:59.732Z,5.18
2023-02-22T06:08:29.172Z,3.95
2023-02-22T06:10:57.327Z,4.75
2023-02-22T06:13:25.376Z,4.25
2023-02-22T06:15:53.546Z,4.00
2023-02-22T06:18:21.552Z,5.07
2023-02-22T06:20:50.958Z,5.38
2023-02-22T06:23:19.066Z,6.93
2023-02-22T06:25:49.295Z,5.43
2023-02-22T06:28:17.616Z,6.00
2023-02-22T06:30:46.148Z,5.45
2023-02-22T06:33:14.244Z,6.38
2023-02-22T06:35:42.362Z,5.47
2023-02-22T06:38:10.338Z,3.78
2023-02-22T06:40:38.401Z,5.50
2023-02-22T06:43:07.934Z,4.70
2023-02-22T06:45:35.907Z,4.32
2023-02-22T06:48:04.522Z,4.38
2023-02-22T06:53:02.898Z,3.33
2023-02-22T06:55:32.379Z,8.35
2023-02-22T06:58:00.860Z,3.40
2023-02-22T07:03:00.194Z,7.60
2023-02-22T07:05:29.543Z,6.50
2023-02-22T07:08:04.398Z,6.25
2023-02-22T07:10:34.046Z,4.68
2023-02-22T07:13:02.579Z,4.13
2023-02-22T07:18:02.760Z,2.60
2023-02-22T07:20:32.505Z,4.53
2023-02-22T07:23:01.607Z,4.85
2023-02-22T07:25:29.722Z,2.40
2023-02-22T07:27:58.074Z,4.85
2023-02-22T07:30:30.731Z,3.08
2023-02-22T07:33:03.531Z,3.10
2023-02-22T07:35:33.896Z,5.07
2023-02-22T07:38:01.909Z,5.20
2023-02-22T07:46:13.868Z,4.57
2023-02-22T07:48:43.356Z,7.30
2023-02-22T07:51:11.361Z,3.35
2023-02-22T07:53:39.441Z,5.05
2023-02-22T07:56:08.914Z,4.20
2023-02-22T07:58:37.000Z,3.92
2023-02-22T08:01:05.994Z,5.40
2023-02-22T08:03:36.873Z,3.50
2023-02-22T08:06:08.107Z,3.08
2023-02-22T08:08:36.290Z,3.97
2023-02-22T08:11:05.718Z,4.80
2023-02-22T08:13:34.039Z,3.50
2023-02-22T08:16:02.185Z,6.05
2023-02-22T08:18:30.696Z,4.28
2023-02-22T08:20:58.676Z,3.63
2023-02-22T08:23:28.240Z,3.67
2023-02-22T08:25:56.684Z,5.00
2023-02-22T08:30:54.583Z,4.03
2023-02-22T08:33:22.976Z,3.30
2023-02-22T08:35:51.852Z,7.25
2023-02-22T08:38:23.784Z,4.72
2023-02-22T08:40:53.502Z,4.22
2023-02-22T08:43:23.028Z,5.13
2023-02-22T08:45:52.913Z,10.13
2023-02-22T08:48:22.314Z,5.00
2023-02-22T08:50:50.473Z,8.18
2023-02-22T08:53:19.095Z,6.18
2023-02-22T08:55:47.277Z,4.60
2023-02-22T08:58:16.611Z,6.90
2023-02-22T09:00:45.627Z,7.82
2023-02-22T09:03:15.525Z,5.40
2023-02-22T09:05:44.132Z,3.67
2023-02-22T09:08:12.344Z,3.75
2023-02-22T09:10:40.764Z,5.80
2023-02-22T09:13:09.151Z,4.63
2023-02-22T09:15:39.915Z,5.15
2023-02-22T09:18:09.467Z,5.93
2023-02-22T09:20:37.664Z,8.73
2023-02-22T09:23:07.484Z,6.18
2023-02-22T09:25:35.822Z,4.53
2023-02-22T09:28:04.005Z,6.43
2023-02-22T09:30:34.380Z,6.82
2023-02-22T09:33:10.126Z,6.03
2023-02-22T09:35:42.214Z,4.97
2023-02-22T09:38:11.500Z,7.43
2023-02-22T09:40:45.073Z,6.30
2023-02-22T09:43:27.274Z,4.82
2023-02-22T09:46:13.616Z,7.15
2023-02-22T09:48:58.290Z,3.90
2023-02-22T09:51:30.521Z,6.90
2023-02-22T09:54:02.221Z,6.38
2023-02-22T09:56:33.863Z,8.90
2023-02-22T09:59:05.018Z,3.85
2023-02-22T10:01:36.614Z,6.18
2023-02-22T10:04:18.579Z,6.55
2023-02-22T10:07:05.939Z,5.22
2023-02-22T10:09:42.795Z,5.63
2023-02-22T10:12:15.658Z,8.13
2023-02-22T10:14:52.568Z,7.65
2023-02-22T10:17:31.808Z,4.68
2023-02-22T10:20:22.565Z,5.53
2023-02-22T10:23:04.154Z,6.18
2023-02-22T10:25:37.382Z,6.25
2023-02-22T10:28:14.568Z,9.57
2023-02-22T10:30:54.667Z,7.45
2023-02-22T10:33:26.516Z,8.65
2023-02-22T10:35:56.718Z,8.02
2023-02-22T10:38:27.753Z,7.28
2023-02-22T10:40:59.263Z,9.30
2023-02-22T10:43:27.302Z,8.82
2023-02-22T10:45:58.381Z,10.18
2023-02-22T10:48:30.255Z,4.57
2023-02-22T10:51:02.606Z,8.85
2023-02-22T10:53:31.596Z,7.28
2023-02-22T10:56:15.901Z,8.90
2023-02-22T10:58:47.901Z,8.90
2023-02-22T11:01:21.132Z,9.50
2023-02-22T11:03:58.979Z,9.05
2023-02-22T11:06:29.477Z,9.90
2023-02-22T11:09:12.161Z,6.43
2023-02-22T11:11:42.252Z,9.82
2023-02-22T11:14:11.712Z,9.88
2023-02-22T11:16:43.090Z,5.85
2023-02-22T11:19:20.998Z,10.80
2023-02-22T11:21:53.061Z,11.13
2023-02-22T11:24:24.556Z,13.48
2023-02-22T11:26:56.563Z,15.57
2023-02-22T11:29:28.801Z,8.95
2023-02-22T11:31:57.336Z,7.43
2023-02-22T11:34:35.035Z,13.20
2023-02-22T11:37:34.721Z,20.70
2023-02-22T11:40:12.091Z,14.95
2023-02-22T11:42:40.164Z,8.77
2023-02-22T11:45:15.788Z,11.85
2023-02-22T11:47:53.906Z,12.32
2023-02-22T11:50:29.143Z,12.90
2023-02-22T11:53:22.532Z,11.05
2023-02-22T11:56:02.632Z,12.20
2023-02-22T11:58:46.666Z,14.02
2023-02-22T12:01:24.692Z,14.57
2023-02-22T12:04:22.597Z,15.52
2023-02-22T12:07:01.445Z,6.43
2023-02-22T12:09:41.605Z,13.80
2023-02-22T12:12:22.320Z,16.27
2023-02-22T12:15:00.358Z,18.85
2023-02-22T12:17:43.586Z,15.38
2023-02-22T12:20:22.798Z,12.10
2023-02-22T12:23:02.109Z,7.97
2023-02-22T12:25:35.677Z,12.07
2023-02-22T12:28:24.264Z,15.77
2023-02-22T12:31:00.626Z,10.48
2023-02-22T12:33:33.280Z,6.25
2023-02-22T12:36:02.292Z,12.43
2023-02-22T12:38:37.426Z,15.65
2023-02-22T12:41:15.047Z,17.98
2023-02-22T12:43:51.841Z,15.93
2023-02-22T12:46:23.033Z,8.60
2023-02-22T12:48:58.413Z,20.08
2023-02-22T12:51:32.980Z,14.43
2023-02-22T12:54:09.667Z,11.15
2023-02-22T12:56:42.955Z,15.85
2023-02-22T12:59:17.512Z,10.20
2023-02-22T13:01:50.664Z,13.50
2023-02-22T13:04:21.262Z,7.05
2023-02-22T13:07:11.452Z,14.65
2023-02-22T13:10:02.270Z,12.65
2023-02-22T13:12:42.114Z,12.93
2023-02-22T13:15:19.983Z,14.85
2023-02-22T13:17:56.304Z,16.50
2023-02-22T13:20:29.244Z,8.57
2023-02-22T13:23:03.463Z,11.70
2023-02-22T13:25:39.289Z,12.18
2023-02-22T13:28:22.030Z,10.80
2023-02-22T13:31:02.834Z,10.82
2023-02-22T13:33:43.174Z,8.98
2023-02-22T13:36:32.042Z,10.35
2023-02-22T13:39:38.406Z,11.15
2023-02-22T13:42:36.414Z,13.48
2023-02-22T13:45:37.341Z,9.30
2023-02-22T13:48:27.939Z,12.68
2023-02-22T13:51:32.315Z,11.90
2023-02-22T13:54:06.033Z,13.13
2023-02-22T13:56:34.117Z,9.55
2023-02-22T13:59:04.666Z,14.32
2023-02-22T14:01:46.911Z,8.18
2023-02-22T14:04:46.612Z,11.02
2023-02-22T14:07:56.246Z,7.82
2023-02-22T14:10:52.336Z,9.65
2023-02-22T14:13:22.550Z,10.15
2023-02-22T14:16:23.516Z,8.68
2023-02-22T14:19:03.057Z,7.63
2023-02-22T14:21:32.599Z,13.05
2023-02-22T14:24:09.202Z,8.70
2023-02-22T14:26:39.300Z,10.27
2023-02-22T14:29:17.489Z,7.97
2023-02-22T14:32:02.268Z,8.52
2023-02-22T14:34:51.991Z,8.75
2023-02-22T14:37:26.304Z,8.57
2023-02-22T14:40:02.313Z,7.70
2023-02-22T14:42:34.188Z,9.85
2023-02-22T14:45:17.181Z,6.85
2023-02-22T14:47:54.375Z,9.95
2023-02-22T14:50:28.369Z,8.88
2023-02-22T14:53:02.748Z,9.55
2023-02-22T14:55:34.540Z,8.43
2023-02-22T14:58:09.676Z,9.57
2023-02-22T15:00:42.578Z,6.28
2023-02-22T15:03:29.317Z,7.65
2023-02-22T15:06:00.176Z,12.95
2023-02-22T15:08:29.665Z,7.60
2023-02-22T15:10:58.833Z,8.35
2023-02-22T15:13:31.493Z,8.73
2023-02-22T15:16:02.269Z,11.15
2023-02-22T15:18:36.506Z,10.38
2023-02-22T15:21:07.763Z,8.57
2023-02-22T15:23:45.886Z,9.25
2023-02-22T15:26:19.336Z,8.15
2023-02-22T15:28:49.017Z,8.88
2023-02-22T15:31:23.845Z,7.65
2023-02-22T15:33:53.190Z,7.68
2023-02-22T15:36:22.837Z,9.15
2023-02-22T15:38:55.861Z,11.15
2023-02-22T15:41:29.950Z,9.82
2023-02-22T15:44:17.541Z,8.20
2023-02-22T15:46:50.852Z,7.90
2023-02-22T15:49:23.395Z,8.95
2023-02-22T15:52:08.456Z,7.85
2023-02-22T15:54:44.100Z,9.70
2023-02-22T15:57:16.452Z,9.30
2023-02-22T15:59:49.314Z,13.18
2023-02-22T16:02:37.730Z,6.57
2023-02-22T16:05:11.690Z,7.35
2023-02-22T16:07:48.079Z,9.52
2023-02-22T16:10:30.805Z,12.07
2023-02-22T16:13:19.042Z,8.82
2023-02-22T16:15:58.213Z,8.85
2023-02-22T16:18:33.751Z,9.88
2023-02-22T16:21:06.296Z,10.32
2023-02-22T16:23:45.627Z,9.27
2023-02-22T16:26:28.234Z,7.90
2023-02-22T16:28:58.035Z,7.15
2023-02-22T16:31:29.484Z,9.20
2023-02-22T16:33:57.816Z,10.40
2023-02-22T16:36:39.228Z,12.10
2023-02-22T16:39:08.402Z,8.52
2023-02-22T16:41:37.849Z,13.52
2023-02-22T16:44:07.936Z,11.35
2023-02-22T16:46:38.183Z,15.88
2023-02-22T16:49:07.999Z,12.77
2023-02-22T16:51:42.519Z,8.38
2023-02-22T16:54:13.296Z,6.78
2023-02-22T16:56:42.898Z,4.63
2023-02-22T16:59:14.694Z,6.97
2023-02-22T17:01:43.324Z,6.88
2023-02-22T17:04:15.982Z,5.80
2023-02-22T17:06:44.091Z,6.05
2023-02-22T17:09:12.365Z,5.72
2023-02-22T17:14:12.075Z,9.07
2023-02-22T17:16:40.189Z,7.03
2023-02-22T17:19:16.133Z,4.50
2023-02-22T17:21:44.417Z,9.15
2023-02-22T17:24:14.097Z,7.00
2023-02-22T17:26:42.276Z,6.03
2023-02-22T17:29:12.975Z,4.70
2023-02-22T17:31:41.173Z,4.78
2023-02-22T17:34:09.484Z,5.65
2023-02-22T17:36:37.509Z,6.07
2023-02-22T17:39:10.582Z,3.83
2023-02-22T17:41:40.665Z,6.05
2023-02-22T17:44:09.475Z,7.60
2023-02-22T17:46:40.802Z,7.22
2023-02-22T17:49:09.252Z,4.75
2023-02-22T17:54:10.116Z,5.07
2023-02-22T17:56:38.596Z,8.35
2023-02-22T17:59:09.158Z,4.90
2023-02-22T18:01:39.200Z,4.13
2023-02-22T18:04:07.724Z,9.50
2023-02-22T18:06:38.147Z,5.53
2023-02-22T18:09:10.714Z,3.90
2023-02-22T18:11:40.667Z,11.85
2023-02-22T18:14:10.846Z,12.80
2023-02-22T18:16:41.538Z,13.13
2023-02-22T18:19:09.728Z,5.93
2023-02-22T18:21:38.766Z,4.43
2023-02-22T18:24:07.637Z,7.53
2023-02-22T18:26:35.762Z,7.65
2023-02-22T18:29:04.121Z,4.18
2023-02-22T18:31:32.414Z,5.57
2023-02-22T18:36:29.708Z,5.35
2023-02-22T18:38:58.092Z,5.70
2023-02-22T18:41:26.567Z,6.05
2023-02-22T18:43:57.744Z,7.28
2023-02-22T18:46:26.304Z,7.32
2023-02-22T18:48:55.678Z,6.70
2023-02-22T18:51:25.872Z,6.10
2023-02-22T18:53:59.902Z,8.23
2023-02-22T18:56:30.150Z,5.03
2023-02-22T18:58:59.903Z,7.85
2023-02-22T19:01:28.923Z,5.55
2023-02-22T19:03:57.157Z,7.05
2023-02-22T19:06:26.631Z,7.85
2023-02-22T19:08:54.710Z,5.93
2023-02-22T19:11:25.046Z,10.13
2023-02-22T19:13:54.877Z,5.60
2023-02-22T19:16:24.150Z,7.22
2023-02-22T19:18:57.086Z,8.65
2023-02-22T19:21:28.032Z,6.22
2023-02-22T19:24:01.673Z,7.18
2023-02-22T19:26:30.856Z,7.10
2023-02-22T19:29:00.269Z,7.88
2023-02-22T19:31:31.610Z,7.00
2023-02-22T19:34:01.865Z,6.00
2023-02-22T19:36:31.580Z,7.90
2023-02-22T19:39:01.686Z,8.63
2023-02-22T19:41:30.924Z,6.38
2023-02-22T19:43:59.792Z,5.47
2023-02-22T19:46:28.258Z,5.80
2023-02-22T19:51:28.682Z,5.53
2023-02-22T19:54:02.486Z,9.35
2023-02-22T19:56:32.211Z,8.38
2023-02-22T19:59:02.440Z,7.03
2023-02-22T20:01:33.285Z,7.47
2023-02-22T20:04:03.656Z,6.13
2023-02-22T20:06:34.773Z,7.35
2023-02-22T20:09:04.897Z,6.30
2023-02-22T20:11:33.020Z,9.75
2023-02-22T20:14:01.985Z,6.10
2023-02-22T20:16:30.635Z,7.65
2023-02-22T20:18:58.661Z,7.32
2023-02-22T20:21:30.776Z,9.10
2023-02-22T20:23:59.307Z,9.55
2023-02-22T20:28:58.464Z,5.43
2023-02-22T20:31:26.510Z,5.57
2023-02-22T20:33:56.284Z,7.80
2023-02-22T20:36:25.531Z,8.15
2023-02-22T20:38:54.941Z,6.97
2023-02-22T20:41:26.003Z,6.05
2023-02-22T20:43:56.955Z,7.28
2023-02-22T20:46:26.330Z,11.35
2023-02-22T20:48:58.969Z,6.25
2023-02-22T20:51:28.641Z,7.65
2023-02-22T20:53:59.902Z,7.50
2023-02-22T20:56:30.410Z,5.38
2023-02-22T20:59:02.119Z,8.27
2023-02-22T21:01:30.373Z,9.02
2023-02-22T21:04:01.556Z,6.35
2023-02-22T21:06:29.866Z,9.10
2023-02-22T21:09:00.277Z,9.30
2023-02-22T21:11:31.367Z,6.80
2023-02-22T21:14:01.949Z,6.50
2023-02-22T21:16:32.816Z,7.70
2023-02-22T21:19:02.959Z,6.45
2023-02-22T21:21:31.767Z,6.30
2023-02-22T21:24:01.837Z,8.38
2023-02-22T21:26:32.315Z,5.30
2023-02-22T21:29:04.835Z,6.35
2023-02-22T21:31:34.053Z,5.07
2023-02-22T21:34:04.156Z,7.07
2023-02-22T21:36:32.350Z,9.43
2023-02-22T21:39:08.389Z,5.22
2023-02-22T21:41:39.211Z,5.57
2023-02-22T21:44:09.948Z,5.75
2023-02-22T21:46:38.245Z,4.68
2023-02-22T21:51:35.362Z,5.18
2023-02-22T21:54:05.428Z,7.13
2023-02-22T21:56:36.210Z,5.40
2023-02-22T21:59:06.378Z,5.78
2023-02-22T22:01:38.029Z,7.78
2023-02-22T22:04:06.826Z,6.07
2023-02-22T22:06:36.631Z,6.55
2023-02-22T22:09:18.163Z,9.52
2023-02-22T22:11:49.564Z,4.95
2023-02-22T22:14:18.649Z,6.68
2023-02-22T22:16:53.184Z,7.25
2023-02-22T22:19:21.317Z,8.35
2023-02-22T22:21:53.177Z,5.68
2023-02-22T22:24:23.201Z,5.50
2023-02-22T22:26:54.540Z,5.47
2023-02-22T22:29:24.377Z,7.90
2023-02-22T22:31:54.491Z,7.65
2023-02-22T22:34:24.382Z,8.80
2023-02-22T22:36:52.704Z,8.35
2023-02-22T22:41:49.671Z,6.82
2023-02-22T22:46:53.615Z,7.60
2023-02-22T22:49:25.380Z,8.20
2023-02-22T22:51:54.469Z,7.90
2023-02-22T22:54:22.507Z,8.02
2023-02-22T22:56:50.647Z,7.78
2023-02-22T22:59:18.584Z,7.63
2023-02-22T23:01:46.713Z,11.70
2023-02-22T23:04:17.245Z,5.90
2023-02-22T23:06:48.237Z,7.05
2023-02-22T23:09:18.837Z,8.48
2023-02-22T23:11:50.849Z,6.45
2023-02-22T23:14:21.779Z,7.35
2023-02-22T23:16:50.762Z,10.93
2023-02-22T23:19:19.699Z,6.13
2023-02-22T23:21:50.788Z,7.00
2023-02-22T23:24:21.088Z,7.40
2023-02-22T23:26:49.572Z,6.97
2023-02-22T23:29:18.789Z,5.68
2023-02-22T23:31:48.620Z,6.53
2023-02-22T23:34:17.267Z,6.07
2023-02-22T23:36:46.672Z,6.72
2023-02-22T23:39:18.173Z,6.22
2023-02-22T23:41:46.372Z,6.60
2023-02-22T23:44:17.698Z,7.47
2023-02-22T23:46:48.348Z,7.25
2023-02-22T23:49:20.497Z,6.35
2023-02-22T23:51:50.004Z,6.10
2023-02-22T23:54:24.558Z,5.95
2023-02-22T23:59:25.970Z,6.00
